Time;durP1;ratioP1;P1;durP2;ratioP2;P2;SDS_P1;SDS_P2;PMS_P1;PMS_P2;Temp;Humidity;BMP_temperature;BMP_pressure;BME280_temperature;BME280_humidity;BME280_pressure;Samples;Min_cycle;Max_cycle;Signal;HPM_P1;HPM_P2
2022/07/17 00:01:07;;;;;;;1.43;1.33;;;28.80;53.50;;;;;;4934081;29;20488;-69
2022/07/17 00:03:36;;;;;;;1.87;1.77;;;28.80;53.60;;;;;;4934352;29;20470;-69
2022/07/17 00:06:07;;;;;;;1.63;1.53;;;28.80;53.40;;;;;;4933133;29;20494;-69
2022/07/17 00:08:36;;;;;;;2.20;2.10;;;28.80;53.40;;;;;;4932382;29;20480;-69
2022/07/17 00:11:08;;;;;;;2.93;2.70;;;28.70;53.40;;;;;;4935306;29;20447;-69
2022/07/17 00:13:36;;;;;;;2.40;2.20;;;28.70;53.40;;;;;;4934987;29;20564;-70
2022/07/17 00:16:08;;;;;;;2.13;2.03;;;28.70;53.40;;;;;;4935412;29;20445;-70
2022/07/17 00:18:37;;;;;;;3.17;2.90;;;28.70;53.40;;;;;;4912875;29;20959;-69
2022/07/17 00:21:08;;;;;;;2.10;2.00;;;28.70;53.40;;;;;;4934128;29;20546;-69
2022/07/17 00:23:38;;;;;;;2.60;2.40;;;28.70;53.40;;;;;;4934453;29;20470;-69
2022/07/17 00:26:06;;;;;;;1.80;1.70;;;28.70;53.50;;;;;;4933564;29;20543;-70
2022/07/17 00:28:34;;;;;;;1.70;1.60;;;28.70;54.00;;;;;;4919786;29;20997;-69
2022/07/17 00:31:05;;;;;;;1.67;1.57;;;28.70;55.00;;;;;;4935164;29;20457;-69
2022/07/17 00:33:34;;;;;;;1.77;1.67;;;28.70;54.10;;;;;;4931348;29;20446;-69
2022/07/17 00:36:05;;;;;;;2.10;2.00;;;28.70;53.80;;;;;;4930795;29;20498;-69
2022/07/17 00:38:33;;;;;;;2.20;2.10;;;28.70;53.70;;;;;;4934184;29;20460;-69
2022/07/17 00:41:07;;;;;;;2.53;1.87;;;28.60;53.80;;;;;;4932881;29;21024;-69
2022/07/17 00:43:35;;;;;;;2.60;2.40;;;28.60;53.80;;;;;;4934911;29;20494;-69
2022/07/17 00:46:07;;;;;;;3.50;3.20;;;28.60;53.70;;;;;;4935512;29;20854;-69
2022/07/17 00:48:35;;;;;;;2.90;2.80;;;28.60;53.50;;;;;;4921299;29;20535;-69
2022/07/17 00:51:11;;;;;;;3.63;3.43;;;28.60;53.50;;;;;;4934715;29;20504;-69
2022/07/17 00:53:41;;;;;;;2.83;2.63;;;28.60;53.40;;;;;;4916385;29;21008;-69
2022/07/17 00:56:12;;;;;;;2.63;2.43;;;28.60;53.50;;;;;;4931604;29;20817;-69
2022/07/17 00:58:41;;;;;;;2.93;2.73;;;28.50;53.70;;;;;;4932693;29;20816;-69
2022/07/17 01:01:09;;;;;;;2.63;2.43;;;28.50;53.60;;;;;;4934038;29;20536;-69
2022/07/17 01:03:38;;;;;;;2.70;2.60;;;28.50;53.70;;;;;;4925881;29;20461;-69
2022/07/17 01:06:07;;;;;;;1.90;1.80;;;28.50;53.60;;;;;;4933493;29;20550;-70
2022/07/17 01:08:36;;;;;;;3.20;2.20;;;28.50;53.90;;;;;;4933351;29;20502;-69
2022/07/17 01:11:09;;;;;;;3.20;1.90;;;28.50;53.70;;;;;;4934209;29;20461;-68
2022/07/17 01:13:38;;;;;;;1.70;1.60;;;28.50;53.80;;;;;;4935258;29;20430;-69
2022/07/17 01:16:08;;;;;;;1.57;1.47;;;28.50;53.90;;;;;;4935315;29;20465;-68
2022/07/17 01:18:37;;;;;;;2.83;2.63;;;28.50;53.90;;;;;;4933524;29;20467;-69
2022/07/17 01:21:10;;;;;;;3.93;3.63;;;28.50;53.90;;;;;;4934739;29;20529;-68
2022/07/17 01:23:38;;;;;;;3.30;3.10;;;28.40;53.60;;;;;;4934603;29;20474;-69
2022/07/17 01:26:06;;;;;;;2.90;2.70;;;28.40;53.50;;;;;;4928136;29;21018;-69
2022/07/17 01:28:34;;;;;;;3.23;2.50;;;28.40;53.70;;;;;;4931185;29;20830;-68
2022/07/17 01:31:06;;;;;;;3.30;3.10;;;28.40;53.80;;;;;;4930674;29;20487;-69
2022/07/17 01:33:34;;;;;;;3.10;2.80;;;28.40;53.50;;;;;;4931505;29;20469;-68
2022/07/17 01:36:06;;;;;;;2.90;2.70;;;28.40;53.60;;;;;;4933925;29;20506;-70
2022/07/17 01:38:35;;;;;;;2.90;2.63;;;28.30;53.60;;;;;;4931841;29;20502;-68
2022/07/17 01:41:06;;;;;;;2.87;2.67;;;28.30;53.50;;;;;;4934044;29;20522;-68
2022/07/17 01:43:35;;;;;;;2.47;2.37;;;28.30;53.60;;;;;;4934222;29;20523;-68
2022/07/17 01:46:05;;;;;;;2.70;2.60;;;28.30;53.60;;;;;;4936153;29;20542;-68
2022/07/17 01:48:34;;;;;;;2.67;2.43;;;28.30;53.90;;;;;;4931121;29;20481;-68
2022/07/17 01:51:05;;;;;;;2.40;2.30;;;28.30;54.00;;;;;;4938918;29;20465;-69
2022/07/17 01:53:35;;;;;;;2.50;2.30;;;28.30;54.00;;;;;;4931994;29;20469;-68
2022/07/17 01:56:07;;;;;;;1.93;1.83;;;28.30;54.20;;;;;;4935806;29;20464;-68
2022/07/17 01:58:35;;;;;;;2.07;1.97;;;28.30;54.10;;;;;;4937573;29;20542;-68
2022/07/17 02:01:06;;;;;;;2.80;2.60;;;28.30;54.10;;;;;;4937877;29;20488;-68
2022/07/17 02:03:34;;;;;;;2.10;2.00;;;28.30;54.20;;;;;;4936438;29;20503;-68
2022/07/17 02:06:09;;;;;;;2.57;2.37;;;28.30;54.20;;;;;;4938488;29;20555;-68
2022/07/17 02:08:40;;;;;;;1.70;1.60;;;28.30;54.20;;;;;;4933495;29;20510;-69
2022/07/17 02:11:08;;;;;;;1.70;1.60;;;28.30;54.30;;;;;;4918438;29;20442;-68
2022/07/17 02:13:36;;;;;;;3.30;3.10;;;28.30;54.20;;;;;;4925005;29;20454;-68
2022/07/17 02:16:08;;;;;;;3.17;2.97;;;28.20;54.10;;;;;;4926395;29;20485;-68
2022/07/17 02:18:36;;;;;;;4.93;3.30;;;28.20;53.80;;;;;;4930478;29;20463;-68
2022/07/17 02:21:08;;;;;;;3.13;2.93;;;28.20;53.50;;;;;;4938499;29;20914;-68
2022/07/17 02:23:36;;;;;;;3.13;2.93;;;28.10;54.00;;;;;;4937834;29;20438;-68
2022/07/17 02:26:09;;;;;;;3.03;2.87;;;28.10;53.80;;;;;;4936413;29;20600;-68
2022/07/17 02:28:38;;;;;;;2.40;2.30;;;28.10;54.00;;;;;;4937423;29;20582;-68
2022/07/17 02:31:06;;;;;;;3.60;3.30;;;28.10;54.20;;;;;;4937812;29;20901;-68
2022/07/17 02:33:34;;;;;;;3.27;2.97;;;28.10;54.00;;;;;;4937951;29;20491;-68
2022/07/17 02:36:05;;;;;;;3.00;2.80;;;28.10;53.90;;;;;;4931584;29;20959;-69
2022/07/17 02:38:34;;;;;;;2.93;2.73;;;28.10;54.00;;;;;;4936926;29;20520;-68
2022/07/17 02:41:04;;;;;;;2.60;2.40;;;28.10;54.10;;;;;;4937825;29;20428;-68
2022/07/17 02:43:34;;;;;;;2.23;2.10;;;28.10;54.20;;;;;;4937291;29;20499;-68
2022/07/17 02:46:06;;;;;;;3.67;3.30;;;28.10;53.90;;;;;;4937924;29;20460;-68
2022/07/17 02:48:40;;;;;;;3.53;3.33;;;28.00;53.80;;;;;;4937540;29;20475;-68
2022/07/17 02:51:08;;;;;;;2.80;2.60;;;28.00;53.70;;;;;;4936197;29;20490;-69
2022/07/17 02:53:36;;;;;;;2.80;2.70;;;28.00;54.10;;;;;;4936340;29;20905;-69
2022/07/17 02:56:09;;;;;;;3.17;2.97;;;28.00;54.10;;;;;;4936969;29;20542;-68
2022/07/17 02:58:39;;;;;;;3.20;3.00;;;28.00;54.20;;;;;;4936103;29;20506;-68
2022/07/17 03:01:07;;;;;;;3.10;2.90;;;28.00;54.30;;;;;;4937153;29;20541;-69
2022/07/17 03:03:35;;;;;;;2.07;1.97;;;27.90;53.80;;;;;;4937679;29;20441;-68
2022/07/17 03:06:07;;;;;;;3.10;2.90;;;27.90;54.00;;;;;;4932187;29;20531;-68
2022/07/17 03:08:35;;;;;;;3.90;3.60;;;27.90;53.80;;;;;;4930938;29;20465;-69
2022/07/17 03:11:06;;;;;;;2.70;2.60;;;27.90;54.10;;;;;;4929826;29;20468;-68
2022/07/17 03:13:34;;;;;;;3.37;3.07;;;27.90;54.40;;;;;;4937274;29;20438;-69
2022/07/17 03:16:08;;;;;;;3.27;3.07;;;27.90;54.30;;;;;;4936685;29;20453;-68
2022/07/17 03:18:37;;;;;;;3.20;3.00;;;27.90;54.50;;;;;;4937191;29;20853;-68
2022/07/17 03:21:08;;;;;;;3.57;3.37;;;27.90;54.30;;;;;;4936971;29;20460;-69
2022/07/17 03:23:36;;;;;;;3.80;3.03;;;27.90;54.40;;;;;;4936737;29;20491;-68
2022/07/17 03:26:07;;;;;;;4.20;2.50;;;27.90;54.40;;;;;;4936234;29;20520;-69
2022/07/17 03:28:35;;;;;;;3.20;3.00;;;27.90;54.70;;;;;;4935677;29;20553;-68
2022/07/17 03:31:08;;;;;;;2.60;2.27;;;27.90;54.60;;;;;;4935925;29;21022;-69
2022/07/17 03:33:36;;;;;;;2.93;2.73;;;27.90;54.70;;;;;;4936138;29;20487;-68
2022/07/17 03:36:08;;;;;;;2.27;2.17;;;27.90;54.70;;;;;;4933051;29;20913;-68
2022/07/17 03:38:36;;;;;;;2.80;2.60;;;27.90;54.70;;;;;;4925862;29;20528;-68
2022/07/17 03:41:07;;;;;;;2.50;2.40;;;27.90;54.80;;;;;;4934742;29;20538;-68
2022/07/17 03:43:35;;;;;;;3.17;2.97;;;27.80;54.70;;;;;;4934794;29;20511;-68
2022/07/17 03:46:08;;;;;;;4.20;3.90;;;27.80;54.50;;;;;;4935171;29;20447;-69
2022/07/17 03:48:37;;;;;;;3.97;3.60;;;27.80;54.30;;;;;;4935466;29;20448;-68
2022/07/17 03:51:08;;;;;;;2.70;2.50;;;27.80;54.50;;;;;;4918143;29;20550;-68
2022/07/17 03:53:36;;;;;;;2.23;2.13;;;27.80;54.10;;;;;;4935139;29;20503;-68
2022/07/17 03:56:08;;;;;;;3.87;3.57;;;27.70;54.20;;;;;;4934625;29;20500;-68
2022/07/17 03:58:36;;;;;;;3.17;2.97;;;27.70;54.30;;;;;;4917956;29;20514;-68
2022/07/17 04:01:09;;;;;;;2.53;2.43;;;27.70;54.70;;;;;;4935588;29;20494;-68
2022/07/17 04:03:37;;;;;;;2.17;2.07;;;27.70;54.80;;;;;;4936354;29;20487;-69
2022/07/17 04:06:09;;;;;;;2.27;2.17;;;27.70;55.00;;;;;;4933259;29;20579;-68
2022/07/17 04:08:37;;;;;;;2.20;2.00;;;27.80;54.80;;;;;;4933842;29;20464;-70
2022/07/17 04:11:09;;;;;;;2.80;2.70;;;27.70;55.00;;;;;;4934394;29;20527;-68
2022/07/17 04:13:38;;;;;;;3.60;3.30;;;27.80;54.80;;;;;;4934324;29;21340;-68
2022/07/17 04:16:08;;;;;;;3.90;3.60;;;27.80;54.50;;;;;;4922931;29;20855;-68
2022/07/17 04:18:37;;;;;;;3.13;2.93;;;27.70;54.20;;;;;;4925206;29;20825;-69
2022/07/17 04:21:10;;;;;;;2.83;2.63;;;27.70;54.30;;;;;;4935555;29;20506;-68
2022/07/17 04:23:38;;;;;;;3.30;3.10;;;27.70;55.00;;;;;;4933508;29;20918;-69
2022/07/17 04:26:07;;;;;;;3.80;3.50;;;27.70;54.70;;;;;;4934901;29;20964;-69
2022/07/17 04:28:39;;;;;;;2.57;2.37;;;27.70;54.50;;;;;;4925030;29;20459;-69
2022/07/17 04:31:09;;;;;;;4.10;3.70;;;27.60;54.50;;;;;;4935875;29;20507;-68
2022/07/17 04:33:38;;;;;;;3.83;3.53;;;27.60;54.50;;;;;;4935886;29;20465;-68
2022/07/17 04:36:06;;;;;;;2.87;2.67;;;27.60;54.50;;;;;;4932780;29;20531;-68
2022/07/17 04:38:35;;;;;;;3.40;3.10;;;27.60;54.90;;;;;;4935032;29;20560;-68
2022/07/17 04:41:05;;;;;;;2.77;2.57;;;27.60;54.60;;;;;;4935133;29;20460;-68
2022/07/17 04:43:33;;;;;;;3.37;3.07;;;27.60;54.90;;;;;;4931617;29;20447;-68
2022/07/17 04:46:04;;;;;;;3.03;2.83;;;27.60;54.80;;;;;;4935267;29;20486;-68
2022/07/17 04:48:34;;;;;;;2.00;1.90;;;27.60;55.10;;;;;;4934392;29;20554;-68
2022/07/17 04:51:04;;;;;;;3.07;2.87;;;27.60;55.50;;;;;;4933610;29;20519;-68
2022/07/17 04:53:33;;;;;;;2.17;2.07;;;27.60;55.40;;;;;;4930909;29;20528;-68
2022/07/17 04:56:01;;;;;;;1.60;1.60;;;27.70;55.40;;;;;;4931766;29;20797;-68
2022/07/17 04:58:32;;;;;;;2.00;1.90;;;27.70;55.40;;;;;;4934420;29;20543;-68
2022/07/17 05:01:00;;;;;;;2.10;2.00;;;27.70;55.50;;;;;;4932296;29;20515;-68
2022/07/17 05:03:28;;;;;;;1.80;1.70;;;27.70;55.50;;;;;;4934301;29;20494;-68
2022/07/17 05:05:58;;;;;;;1.90;1.80;;;27.70;55.60;;;;;;4918986;29;20517;-69
2022/07/17 05:08:26;;;;;;;2.73;2.60;;;27.70;55.60;;;;;;4932373;29;20460;-68
2022/07/17 05:10:54;;;;;;;1.77;1.67;;;27.80;55.40;;;;;;4923652;29;20949;-68
2022/07/17 05:13:23;;;;;;;2.00;1.90;;;27.80;55.70;;;;;;4915593;29;20855;-68
2022/07/17 05:15:51;;;;;;;1.63;1.53;;;27.80;55.70;;;;;;4931378;29;20938;-68
2022/07/17 05:18:19;;;;;;;1.70;1.60;;;27.80;55.70;;;;;;4928882;29;20455;-68
2022/07/17 05:20:47;;;;;;;1.57;1.47;;;27.80;55.70;;;;;;4937350;29;20479;-69
2022/07/17 05:23:17;;;;;;;1.50;1.40;;;27.80;55.70;;;;;;4941320;29;20444;-68
2022/07/17 05:25:45;;;;;;;1.70;1.60;;;27.80;55.70;;;;;;4939620;29;20498;-68
2022/07/17 05:28:14;;;;;;;1.60;1.50;;;27.80;55.80;;;;;;4941157;29;20453;-69
2022/07/17 05:30:42;;;;;;;1.50;1.40;;;27.80;55.80;;;;;;4941373;29;20500;-68
2022/07/17 05:33:10;;;;;;;1.33;1.33;;;27.80;55.90;;;;;;4940511;29;20536;-69
2022/07/17 05:35:38;;;;;;;2.17;2.07;;;27.80;55.90;;;;;;4940775;29;20448;-68
2022/07/17 05:38:06;;;;;;;1.83;1.73;;;27.80;55.80;;;;;;4930942;29;20558;-68
2022/07/17 05:40:36;;;;;;;2.23;2.10;;;27.80;55.90;;;;;;4923022;29;20562;-69
2022/07/17 05:43:04;;;;;;;1.57;1.57;;;27.80;55.60;;;;;;4940544;29;20433;-68
2022/07/17 05:45:32;;;;;;;2.33;2.13;;;27.80;55.80;;;;;;4940898;29;20923;-68
2022/07/17 05:48:00;;;;;;;1.97;1.87;;;27.90;55.80;;;;;;4940260;29;20452;-68
2022/07/17 05:50:29;;;;;;;1.80;1.70;;;27.90;55.90;;;;;;4941089;29;20551;-69
2022/07/17 05:52:57;;;;;;;1.33;1.33;;;27.90;55.70;;;;;;4940755;29;20483;-68
2022/07/17 05:55:25;;;;;;;1.60;1.50;;;27.90;55.80;;;;;;4938038;29;20508;-69
2022/07/17 05:57:55;;;;;;;1.70;1.60;;;27.90;55.90;;;;;;4940883;29;20522;-69
2022/07/17 06:00:23;;;;;;;2.00;1.90;;;27.90;55.60;;;;;;4940826;29;20980;-68
2022/07/17 06:02:51;;;;;;;1.83;1.73;;;27.90;55.40;;;;;;4940871;29;20472;-68
2022/07/17 06:05:20;;;;;;;1.80;1.70;;;27.90;55.20;;;;;;4941321;29;20464;-68
2022/07/17 06:07:48;;;;;;;1.37;1.37;;;27.90;55.90;;;;;;4940430;29;20523;-68
2022/07/17 06:10:16;;;;;;;1.57;1.47;;;27.90;55.50;;;;;;4920855;29;20461;-68
2022/07/17 06:12:45;;;;;;;1.70;1.60;;;27.90;55.30;;;;;;4939978;29;20499;-68
2022/07/17 06:15:14;;;;;;;1.73;1.63;;;27.90;55.60;;;;;;4939088;29;20459;-68
2022/07/17 06:17:43;;;;;;;1.80;1.70;;;27.90;55.30;;;;;;4941086;29;20500;-68
2022/07/17 06:20:12;;;;;;;1.80;1.70;;;27.90;55.50;;;;;;4940798;29;20507;-68
2022/07/17 06:22:41;;;;;;;2.03;1.93;;;27.90;55.30;;;;;;4940007;29;20458;-68
2022/07/17 06:25:11;;;;;;;1.60;1.50;;;27.90;55.40;;;;;;4939849;29;20545;-68
2022/07/17 06:27:40;;;;;;;1.57;1.50;;;28.00;55.40;;;;;;4939949;29;20492;-71
2022/07/17 06:30:10;;;;;;;2.30;2.10;;;28.00;55.90;;;;;;4940177;29;20559;-68
2022/07/17 06:32:39;;;;;;;2.03;1.93;;;28.00;55.30;;;;;;4938394;29;20472;-68
2022/07/17 06:35:09;;;;;;;1.33;1.23;;;28.00;55.70;;;;;;4937460;29;20447;-68
2022/07/17 06:37:37;;;;;;;1.70;1.60;;;28.00;55.40;;;;;;4933644;29;20527;-68
2022/07/17 06:40:07;;;;;;;1.57;1.47;;;28.00;55.50;;;;;;4935709;29;20500;-68
2022/07/17 06:42:35;;;;;;;1.77;1.67;;;28.00;55.50;;;;;;4937914;29;20457;-68
2022/07/17 06:45:04;;;;;;;1.77;1.67;;;28.00;55.80;;;;;;4936662;29;20542;-68
2022/07/17 06:47:32;;;;;;;2.13;1.60;;;28.00;55.70;;;;;;4937272;29;20905;-68
2022/07/17 06:50:02;;;;;;;1.70;1.60;;;28.00;55.60;;;;;;4937506;29;20453;-69
2022/07/17 06:52:31;;;;;;;1.50;1.40;;;28.00;55.60;;;;;;4933026;29;20508;-69
2022/07/17 06:54:59;;;;;;;1.47;1.47;;;28.00;55.40;;;;;;4936688;29;20460;-69
2022/07/17 06:57:27;;;;;;;1.70;1.60;;;28.10;55.50;;;;;;4936412;29;20861;-69
2022/07/17 06:59:55;;;;;;;1.87;1.77;;;28.10;55.40;;;;;;4936982;29;20483;-69
2022/07/17 07:02:23;;;;;;;1.60;1.50;;;28.10;55.60;;;;;;4937232;29;20442;-69
2022/07/17 07:04:51;;;;;;;1.70;1.60;;;28.10;55.50;;;;;;4935323;29;20463;-69
2022/07/17 07:07:21;;;;;;;1.30;1.20;;;28.00;55.60;;;;;;4925217;29;20493;-69
2022/07/17 07:09:50;;;;;;;1.80;1.70;;;28.10;55.70;;;;;;4932132;29;20531;-70
2022/07/17 07:12:18;;;;;;;1.33;1.20;;;28.10;55.50;;;;;;4933829;29;20550;-69
2022/07/17 07:14:46;;;;;;;1.57;1.47;;;28.10;55.40;;;;;;4935509;29;20472;-69
2022/07/17 07:17:16;;;;;;;1.47;1.37;;;28.10;55.60;;;;;;4935932;29;20511;-69
2022/07/17 07:19:44;;;;;;;1.60;1.50;;;28.10;55.70;;;;;;4933489;29;20475;-69
2022/07/17 07:22:13;;;;;;;1.70;1.60;;;28.10;55.30;;;;;;4934412;29;20491;-69
2022/07/17 07:24:42;;;;;;;1.77;1.67;;;28.10;55.70;;;;;;4932988;29;20531;-69
2022/07/17 07:27:11;;;;;;;2.07;1.90;;;28.10;55.80;;;;;;4925527;29;20485;-70
2022/07/17 07:29:39;;;;;;;1.80;1.70;;;28.10;55.60;;;;;;4927631;29;21505;-69
2022/07/17 07:32:07;;;;;;;1.70;1.60;;;28.10;55.40;;;;;;4923261;29;20484;-69
2022/07/17 07:34:36;;;;;;;1.70;1.60;;;28.10;55.80;;;;;;4922374;29;20496;-69
2022/07/17 07:37:04;;;;;;;1.80;1.70;;;28.10;55.90;;;;;;4925531;29;20489;-69
2022/07/17 07:39:32;;;;;;;1.43;1.40;;;28.10;55.80;;;;;;4927286;29;20501;-69
2022/07/17 07:42:02;;;;;;;1.53;1.43;;;28.10;55.80;;;;;;4928304;29;20572;-69
2022/07/17 07:44:30;;;;;;;1.33;1.33;;;28.10;55.70;;;;;;4924722;29;20815;-69
2022/07/17 07:46:59;;;;;;;1.70;1.60;;;28.10;55.70;;;;;;4924988;29;20491;-69
2022/07/17 07:49:29;;;;;;;1.40;1.40;;;28.10;55.70;;;;;;4933007;29;20504;-69
2022/07/17 07:52:06;;;;;;;1.27;1.27;;;28.20;55.90;;;;;;4917153;29;20489;-68
2022/07/17 07:54:35;;;;;;;1.70;1.60;;;28.20;55.90;;;;;;4926980;29;20890;-68
2022/07/17 07:57:05;;;;;;;1.80;1.70;;;28.20;55.90;;;;;;4932417;29;20472;-70
2022/07/17 07:59:34;;;;;;;1.20;1.20;;;28.20;55.90;;;;;;4930716;29;20877;-68
2022/07/17 08:02:03;;;;;;;2.00;1.90;;;28.20;55.80;;;;;;4931238;29;20512;-69
2022/07/17 08:04:31;;;;;;;1.50;1.40;;;28.20;55.80;;;;;;4932415;29;20518;-69
2022/07/17 08:07:00;;;;;;;1.80;1.70;;;28.20;55.80;;;;;;4928067;29;20618;-68
2022/07/17 08:09:28;;;;;;;1.30;1.30;;;28.20;55.80;;;;;;4930773;29;20460;-69
2022/07/17 08:11:56;;;;;;;1.60;1.50;;;28.20;55.80;;;;;;4932626;29;20533;-68
2022/07/17 08:14:26;;;;;;;1.37;1.37;;;28.20;55.80;;;;;;4927435;29;20460;-69
2022/07/17 08:16:54;;;;;;;1.80;1.70;;;28.20;55.80;;;;;;4922053;29;20924;-68
2022/07/17 08:19:23;;;;;;;1.50;1.43;;;28.20;55.80;;;;;;4934971;29;20463;-68
2022/07/17 08:21:51;;;;;;;1.20;1.20;;;28.20;55.80;;;;;;4932714;29;20972;-68
2022/07/17 08:24:20;;;;;;;2.17;1.97;;;28.20;55.80;;;;;;4934258;29;20489;-68
2022/07/17 08:26:48;;;;;;;1.10;1.10;;;28.30;55.70;;;;;;4931091;29;20518;-70
2022/07/17 08:29:16;;;;;;;1.40;1.30;;;28.30;55.70;;;;;;4930573;29;20978;-68
2022/07/17 08:32:06;;;;;;;1.37;1.30;;;28.30;55.70;;;;;;4930391;29;20484;-69
2022/07/17 08:34:34;;;;;;;1.53;1.43;;;28.30;55.70;;;;;;4928411;29;20468;-68
2022/07/17 08:37:03;;;;;;;1.50;1.40;;;28.30;55.70;;;;;;4930797;29;20508;-68
2022/07/17 08:39:31;;;;;;;1.37;1.33;;;28.30;55.70;;;;;;4928179;29;20868;-68
2022/07/17 08:42:02;;;;;;;1.30;1.30;;;28.30;55.70;;;;;;4927108;29;20460;-68
2022/07/17 08:44:30;;;;;;;1.90;1.80;;;28.30;55.70;;;;;;4925008;29;20488;-69
2022/07/17 08:46:59;;;;;;;1.47;1.37;;;28.30;55.70;;;;;;4931195;29;20927;-68
2022/07/17 08:49:30;;;;;;;1.30;1.20;;;28.30;55.70;;;;;;4917601;29;20527;-68
2022/07/17 08:51:58;;;;;;;1.53;1.43;;;28.30;55.70;;;;;;4934703;29;20488;-68
2022/07/17 08:54:26;;;;;;;1.30;1.30;;;28.30;55.70;;;;;;4926797;29;20461;-68
2022/07/17 08:56:55;;;;;;;1.53;1.43;;;28.30;55.70;;;;;;4925727;29;20832;-68
2022/07/17 08:59:23;;;;;;;1.60;1.50;;;28.30;55.70;;;;;;4932431;29;20541;-69
2022/07/17 09:01:51;;;;;;;1.80;1.70;;;28.30;55.70;;;;;;4930927;29;20499;-68
2022/07/17 09:04:19;;;;;;;1.80;1.70;;;28.30;55.70;;;;;;4921289;29;20531;-68
2022/07/17 09:07:00;;;;;;;1.87;1.77;;;28.30;55.70;;;;;;4922769;29;20576;-68
2022/07/17 09:09:33;;;;;;;1.20;1.20;;;28.30;55.70;;;;;;4924283;29;20468;-68
2022/07/17 09:12:04;;;;;;;1.70;1.60;;;28.30;55.60;;;;;;4926967;29;20445;-69
2022/07/17 09:14:39;;;;;;;1.80;1.70;;;28.30;55.60;;;;;;4929933;29;21011;-68
2022/07/17 09:17:09;;;;;;;1.33;1.33;;;28.30;55.60;;;;;;4930921;29;20453;-68
2022/07/17 09:19:40;;;;;;;1.60;1.50;;;28.40;55.60;;;;;;4910256;29;20563;-68
2022/07/17 09:22:12;;;;;;;1.30;1.30;;;28.40;55.60;;;;;;4931328;29;20511;-68
2022/07/17 09:24:46;;;;;;;1.80;1.70;;;28.40;55.60;;;;;;4933515;29;20555;-69
2022/07/17 09:27:18;;;;;;;1.47;1.37;;;28.40;55.60;;;;;;4914796;29;20450;-69
2022/07/17 09:29:56;;;;;;;1.83;1.73;;;28.40;55.60;;;;;;4931116;29;20471;-68
2022/07/17 09:32:27;;;;;;;1.60;1.50;;;28.40;55.60;;;;;;4930498;29;20528;-69
2022/07/17 09:34:58;;;;;;;1.53;1.53;;;28.40;55.60;;;;;;4927838;29;20888;-68
2022/07/17 09:37:30;;;;;;;1.60;1.50;;;28.40;55.60;;;;;;4932230;29;20491;-68
2022/07/17 09:40:01;;;;;;;1.80;1.70;;;28.40;55.60;;;;;;4929895;29;20460;-69
2022/07/17 09:42:30;;;;;;;1.97;1.60;;;28.40;55.50;;;;;;4931803;29;20559;-69
2022/07/17 09:45:00;;;;;;;1.90;1.80;;;28.40;55.60;;;;;;4931788;29;20544;-68
2022/07/17 09:47:32;;;;;;;1.53;1.43;;;28.40;55.50;;;;;;4930430;29;20549;-69
2022/07/17 09:50:02;;;;;;;1.17;1.17;;;28.40;55.50;;;;;;4928578;29;20480;-68
2022/07/17 09:52:35;;;;;;;1.30;1.20;;;28.40;55.50;;;;;;4932763;29;20881;-68
2022/07/17 09:55:05;;;;;;;1.40;1.30;;;28.40;55.50;;;;;;4929781;29;20465;-72
2022/07/17 09:57:56;;;;;;;1.50;1.40;;;28.40;55.50;;;;;;4931650;29;20457;-68
2022/07/17 10:00:24;;;;;;;1.60;1.50;;;28.50;55.50;;;;;;4933280;29;20460;-68
2022/07/17 10:02:53;;;;;;;1.40;1.30;;;28.50;55.50;;;;;;4933713;29;20457;-68
2022/07/17 10:05:22;;;;;;;1.80;1.70;;;28.50;55.40;;;;;;4933383;29;20501;-68
2022/07/17 10:07:51;;;;;;;1.70;1.60;;;28.50;55.40;;;;;;4931544;29;20444;-68
2022/07/17 10:10:20;;;;;;;1.40;1.30;;;28.50;55.40;;;;;;4935399;29;20460;-69
2022/07/17 10:12:50;;;;;;;2.60;1.87;;;28.50;55.40;;;;;;4930741;29;20515;-67
2022/07/17 10:15:20;;;;;;;1.40;1.40;;;28.50;55.40;;;;;;4932684;29;20981;-67
2022/07/17 10:17:48;;;;;;;1.73;1.63;;;28.50;55.40;;;;;;4921578;29;20865;-67
2022/07/17 10:20:25;;;;;;;1.30;1.20;;;28.50;55.40;;;;;;4922731;29;20873;-68
2022/07/17 10:22:55;;;;;;;1.60;1.50;;;28.50;55.40;;;;;;4924898;29;20460;-67
2022/07/17 10:25:24;;;;;;;1.53;1.43;;;28.50;55.40;;;;;;4925342;29;20606;-67
2022/07/17 10:27:55;;;;;;;1.47;1.37;;;28.50;55.40;;;;;;4929882;29;20462;-67
2022/07/17 10:30:28;;;;;;;1.43;1.33;;;28.50;55.40;;;;;;4930355;29;20449;-69
2022/07/17 10:32:59;;;;;;;1.40;1.30;;;28.50;55.40;;;;;;4931910;29;20471;-67
2022/07/17 10:35:28;;;;;;;1.57;1.47;;;28.50;55.40;;;;;;4936676;29;20991;-67
2022/07/17 10:38:10;;;;;;;1.73;1.63;;;28.50;55.40;;;;;;4935069;29;20464;-67
2022/07/17 10:40:39;;;;;;;1.70;1.60;;;28.50;55.40;;;;;;4931082;29;20858;-67
2022/07/17 10:43:09;;;;;;;1.50;1.40;;;28.50;55.40;;;;;;4934990;29;20498;-67
2022/07/17 10:45:39;;;;;;;1.60;1.50;;;28.50;55.40;;;;;;4929255;29;20488;-68
2022/07/17 10:48:09;;;;;;;1.60;1.50;;;28.50;55.40;;;;;;4932534;29;20471;-67
2022/07/17 10:50:40;;;;;;;1.50;1.40;;;28.50;55.40;;;;;;4937486;29;20512;-68
2022/07/17 10:53:15;;;;;;;1.90;1.80;;;28.50;55.40;;;;;;4937802;29;20484;-68
2022/07/17 10:55:53;;;;;;;1.47;1.37;;;28.50;55.50;;;;;;4936646;29;20485;-67
2022/07/17 10:58:25;;;;;;;1.90;1.80;;;28.50;55.40;;;;;;4936757;29;20464;-71
2022/07/17 11:00:58;;;;;;;1.70;1.60;;;28.50;55.40;;;;;;4936659;29;20461;-68
2022/07/17 11:03:27;;;;;;;1.37;1.27;;;28.60;55.40;;;;;;4936465;29;20484;-68
2022/07/17 11:05:55;;;;;;;1.40;1.30;;;28.60;55.40;;;;;;4934721;29;20458;-68
2022/07/17 11:08:25;;;;;;;1.27;1.27;;;28.60;55.40;;;;;;4933261;29;20486;-69
2022/07/17 11:10:54;;;;;;;1.30;1.30;;;28.60;55.30;;;;;;4929063;29;20569;-67
2022/07/17 11:13:22;;;;;;;1.53;1.43;;;28.60;55.30;;;;;;4935244;29;20588;-68
2022/07/17 11:15:50;;;;;;;1.57;1.47;;;28.60;55.20;;;;;;4932761;29;20771;-67
2022/07/17 11:18:20;;;;;;;1.47;1.40;;;28.60;55.20;;;;;;4933749;29;20449;-68
2022/07/17 11:20:50;;;;;;;1.70;1.60;;;28.60;55.20;;;;;;4936706;29;20441;-67
2022/07/17 11:23:20;;;;;;;1.33;1.27;;;28.60;55.20;;;;;;4932588;29;20943;-67
2022/07/17 11:25:59;;;;;;;1.33;1.23;;;28.60;55.10;;;;;;4932016;29;20486;-67
2022/07/17 11:28:34;;;;;;;1.30;1.30;;;28.70;55.10;;;;;;4931902;29;20452;-72
2022/07/17 11:31:06;;;;;;;1.00;1.00;;;28.70;55.10;;;;;;4932581;29;20900;-68
2022/07/17 11:33:34;;;;;;;1.60;1.50;;;28.70;55.10;;;;;;4936503;29;20482;-67
2022/07/17 11:36:05;;;;;;;1.33;1.30;;;28.70;55.00;;;;;;4933198;29;20549;-68
2022/07/17 11:38:35;;;;;;;1.70;1.60;;;28.70;55.00;;;;;;4931274;29;20575;-67
2022/07/17 11:41:07;;;;;;;1.30;1.30;;;28.70;55.00;;;;;;4929661;29;20588;-67
2022/07/17 11:43:41;;;;;;;1.07;1.07;;;28.70;55.00;;;;;;4932404;29;20465;-67
2022/07/17 11:46:09;;;;;;;0.90;0.90;;;28.80;55.00;;;;;;4935075;29;20463;-68
2022/07/17 11:48:41;;;;;;;1.40;1.40;;;28.70;55.00;;;;;;4931561;29;20467;-68
2022/07/17 11:51:09;;;;;;;1.30;1.23;;;28.70;54.90;;;;;;4935215;29;20526;-67
2022/07/17 11:53:39;;;;;;;1.50;1.40;;;28.70;54.90;;;;;;4932850;29;20492;-66
2022/07/17 11:56:09;;;;;;;1.10;1.10;;;28.70;55.00;;;;;;4929798;29;20931;-67
2022/07/17 11:58:43;;;;;;;1.40;1.30;;;28.70;55.00;;;;;;4934405;29;20470;-67
2022/07/17 12:01:11;;;;;;;1.30;1.30;;;28.70;55.00;;;;;;4936830;29;20447;-67
2022/07/17 12:03:40;;;;;;;1.50;1.37;;;28.70;55.00;;;;;;4930831;29;20873;-67
2022/07/17 12:06:09;;;;;;;1.33;1.23;;;28.70;54.90;;;;;;4927196;29;20467;-68
2022/07/17 12:08:37;;;;;;;1.10;1.10;;;28.70;54.90;;;;;;4926003;29;21339;-67
2022/07/17 12:11:09;;;;;;;1.70;1.60;;;28.70;54.90;;;;;;4926215;29;20512;-68
2022/07/17 12:13:42;;;;;;;1.50;1.40;;;28.70;54.90;;;;;;4926489;29;20875;-74
2022/07/17 12:16:27;;;;;;;1.30;1.30;;;28.80;54.90;;;;;;4927368;29;20455;-67
2022/07/17 12:19:08;;;;;;;1.20;1.20;;;28.80;54.80;;;;;;4929534;29;20452;-67
2022/07/17 12:21:54;;;;;;;1.37;1.30;;;28.90;54.70;;;;;;4929620;29;20466;-67
2022/07/17 12:24:26;;;;;;;1.20;1.10;;;28.90;54.70;;;;;;4926828;29;20865;-68
2022/07/17 12:26:59;;;;;;;1.80;1.70;;;28.90;54.70;;;;;;4926835;29;20858;-67
2022/07/17 12:29:28;;;;;;;1.53;1.43;;;28.90;54.60;;;;;;4933837;29;20996;-67
2022/07/17 12:32:07;;;;;;;1.60;1.50;;;29.00;54.60;;;;;;4933759;29;20481;-68
2022/07/17 12:34:38;;;;;;;1.40;1.30;;;29.00;54.60;;;;;;4932374;29;20471;-67
2022/07/17 12:37:06;;;;;;;1.20;1.20;;;29.00;54.50;;;;;;4931020;29;20592;-67
2022/07/17 12:39:34;;;;;;;1.57;1.47;;;29.00;54.40;;;;;;4930238;29;20466;-67
2022/07/17 12:42:07;;;;;;;1.13;1.10;;;29.00;54.50;;;;;;4928618;29;20475;-68
2022/07/17 12:44:36;;;;;;;1.30;1.20;;;29.00;54.40;;;;;;4927190;29;20820;-68
2022/07/17 12:47:05;;;;;;;1.63;1.53;;;29.00;54.50;;;;;;4931851;29;20452;-68
2022/07/17 12:49:33;;;;;;;1.40;1.30;;;29.00;54.50;;;;;;4923645;29;20559;-68
2022/07/17 12:52:02;;;;;;;1.63;1.53;;;29.00;54.40;;;;;;4920772;29;20581;-68
2022/07/17 12:54:31;;;;;;;1.40;1.30;;;28.90;54.50;;;;;;4921937;29;20468;-66
2022/07/17 12:57:00;;;;;;;1.40;1.40;;;28.90;54.60;;;;;;4918378;29;20442;-67
2022/07/17 12:59:29;;;;;;;1.60;1.50;;;29.00;54.60;;;;;;4929294;29;20515;-67
2022/07/17 13:01:57;;;;;;;1.33;1.33;;;28.90;54.50;;;;;;4933868;29;20999;-69